Time;durP1;ratioP1;P1;durP2;ratioP2;P2;SDS_P1;SDS_P2;PMS_P1;PMS_P2;Temp;Humidity;BMP_temperature;BMP_pressure;BME280_temperature;BME280_humidity;BME280_pressure;Samples;Min_cycle;Max_cycle;Signal;HPM_P1;HPM_P2
2023/06/05 00:00:32;;;;;;;2.83;2.72;;;;;;;;;;5125481;23;20075;-58
2023/06/05 00:02:53;;;;;;;2.88;2.78;;;;;;;;;;5125517;23;20028;-58
2023/06/05 00:05:13;;;;;;;3.25;3.05;;;;;;;;;;5125373;23;20036;-58
2023/06/05 00:07:33;;;;;;;3.05;3.00;;;;;;;;;;5125378;23;20048;-58
2023/06/05 00:09:53;;;;;;;3.22;2.97;;;;;;;;;;5125517;23;20027;-58
2023/06/05 00:12:14;;;;;;;3.47;3.17;;;;;;;;;;5125342;23;20208;-58
2023/06/05 00:14:35;;;;;;;3.80;3.60;;;;;;;;;;5125215;23;20024;-58
2023/06/05 00:16:57;;;;;;;2.83;2.75;;;;;;;;;;5125294;23;20028;-58
2023/06/05 00:19:17;;;;;;;2.30;2.30;;;;;;;;;;5125336;23;20080;-58
2023/06/05 00:21:37;;;;;;;2.58;2.47;;;;;;;;;;5125290;23;20240;-58
2023/06/05 00:23:57;;;;;;;2.78;2.53;;;;;;;;;;5126491;23;20023;-58
2023/06/05 00:26:18;;;;;;;2.78;2.58;;;;;;;;;;5126511;23;20299;-58
2023/06/05 00:28:38;;;;;;;2.78;2.67;;;;;;;;;;5126344;23;20248;-58
2023/06/05 00:30:58;;;;;;;3.22;3.03;;;;;;;;;;5126520;23;20032;-58
2023/06/05 00:33:19;;;;;;;2.47;2.40;;;;;;;;;;5126591;23;20071;-59
2023/06/05 00:35:39;;;;;;;3.47;3.38;;;;;;;;;;5126263;23;20031;-59
2023/06/05 00:38:00;;;;;;;3.10;2.97;;;;;;;;;;5126385;23;20027;-59
2023/06/05 00:40:20;;;;;;;3.67;3.58;;;;;;;;;;5126409;23;20031;-59
2023/06/05 00:42:41;;;;;;;3.65;3.35;;;;;;;;;;5126354;23;20036;-59
2023/06/05 00:45:01;;;;;;;3.05;2.97;;;;;;;;;;5126400;23;20059;-59
2023/06/05 00:47:22;;;;;;;2.75;2.63;;;;;;;;;;5126528;23;20108;-59
2023/06/05 00:49:42;;;;;;;2.88;2.78;;;;;;;;;;5126428;23;20083;-59
2023/06/05 00:52:03;;;;;;;2.17;2.17;;;;;;;;;;5126198;23;20052;-59
2023/06/05 00:54:24;;;;;;;2.78;2.72;;;;;;;;;;5126245;23;20028;-59
2023/06/05 00:56:44;;;;;;;2.22;2.22;;;;;;;;;;5126421;23;20036;-59
2023/06/05 00:59:05;;;;;;;2.20;2.13;;;;;;;;;;5126246;23;20243;-59
2023/06/05 01:01:28;;;;;;;2.30;2.17;;;;;;;;;;5126623;23;20044;-54
2023/06/05 01:03:48;;;;;;;3.50;2.30;;;;;;;;;;5148260;22;20349;-69
2023/06/05 01:06:08;;;;;;;2.38;2.28;;;;;;;;;;5174506;23;20070;-69
2023/06/05 01:08:39;;;;;;;2.35;2.25;;;;;;;;;;5175605;23;20080;-69
2023/06/05 01:11:02;;;;;;;1.85;1.85;;;;;;;;;;5175871;23;20038;-70
2023/06/05 01:13:24;;;;;;;2.20;2.20;;;;;;;;;;5175814;23;20034;-70
2023/06/05 01:15:44;;;;;;;2.10;1.85;;;;;;;;;;5175621;23;20092;-69
2023/06/05 01:18:04;;;;;;;2.13;2.03;;;;;;;;;;5175677;23;20111;-72
2023/06/05 01:20:41;;;;;;;2.22;2.05;;;;;;;;;;5176405;23;20079;-73
2023/06/05 01:23:08;;;;;;;2.38;2.28;;;;;;;;;;5176364;23;20080;-72
2023/06/05 01:25:29;;;;;;;1.67;1.58;;;;;;;;;;5176290;23;20023;-72
2023/06/05 01:27:59;;;;;;;2.05;1.83;;;;;;;;;;5176315;23;20035;-72
2023/06/05 01:30:24;;;;;;;2.25;1.85;;;;;;;;;;5176460;23;20050;-72
2023/06/05 01:33:02;;;;;;;2.92;1.90;;;;;;;;;;5176174;23;20035;-72
2023/06/05 01:35:27;;;;;;;1.60;1.50;;;;;;;;;;5184683;23;20353;-72
2023/06/05 01:37:48;;;;;;;2.25;2.22;;;;;;;;;;5176119;23;20030;-72
2023/06/05 01:40:14;;;;;;;1.50;1.50;;;;;;;;;;5186693;22;20034;-72
2023/06/05 01:42:34;;;;;;;1.83;1.83;;;;;;;;;;5201748;22;20047;-72
2023/06/05 01:44:55;;;;;;;1.98;1.70;;;;;;;;;;5201553;22;20031;-72
2023/06/05 01:47:16;;;;;;;2.20;2.15;;;;;;;;;;5201489;22;20072;-71
2023/06/05 01:49:36;;;;;;;2.08;1.98;;;;;;;;;;5201706;22;20057;-71
2023/06/05 01:51:56;;;;;;;1.98;1.98;;;;;;;;;;5201570;22;20026;-72
2023/06/05 01:54:18;;;;;;;2.00;2.00;;;;;;;;;;5201294;22;20030;-72
2023/06/05 01:56:39;;;;;;;2.08;1.98;;;;;;;;;;5201683;22;20061;-72
2023/06/05 01:59:06;;;;;;;1.73;1.73;;;;;;;;;;5201574;22;20238;-72
2023/06/05 02:01:28;;;;;;;1.50;1.50;;;;;;;;;;5201415;22;20290;-72
2023/06/05 02:03:49;;;;;;;1.58;1.50;;;;;;;;;;5201542;22;20079;-72
2023/06/05 02:06:09;;;;;;;1.48;1.40;;;;;;;;;;5201652;22;20030;-71
2023/06/05 02:08:30;;;;;;;3.05;1.98;;;;;;;;;;5201496;22;20098;-72
2023/06/05 02:10:52;;;;;;;1.88;1.88;;;;;;;;;;5201478;22;20046;-72
2023/06/05 02:13:15;;;;;;;1.90;1.80;;;;;;;;;;5201687;22;20356;-72
2023/06/05 02:15:35;;;;;;;2.00;2.00;;;;;;;;;;5201487;22;20022;-72
2023/06/05 02:17:56;;;;;;;2.05;2.05;;;;;;;;;;5201394;22;20272;-72
2023/06/05 02:20:17;;;;;;;1.60;1.60;;;;;;;;;;5201778;22;20348;-72
2023/06/05 02:22:37;;;;;;;4.22;1.98;;;;;;;;;;5201557;22;20282;-72
2023/06/05 02:24:57;;;;;;;2.70;1.77;;;;;;;;;;5201358;22;20352;-72
2023/06/05 02:27:19;;;;;;;1.95;1.85;;;;;;;;;;5201415;22;20029;-72
2023/06/05 02:29:39;;;;;;;2.53;2.33;;;;;;;;;;5201496;22;20101;-72
2023/06/05 02:31:59;;;;;;;2.75;2.55;;;;;;;;;;5201252;22;20023;-72
2023/06/05 02:34:20;;;;;;;2.60;2.47;;;;;;;;;;5201222;22;20027;-71
2023/06/05 02:36:42;;;;;;;1.85;1.85;;;;;;;;;;5201490;22;20034;-71
2023/06/05 02:39:04;;;;;;;2.28;2.08;;;;;;;;;;5201598;22;20038;-71
2023/06/05 02:41:26;;;;;;;1.98;1.98;;;;;;;;;;5201271;22;20053;-71
2023/06/05 02:43:46;;;;;;;2.17;2.17;;;;;;;;;;5201580;22;20240;-71
2023/06/05 02:46:06;;;;;;;1.60;1.60;;;;;;;;;;5201148;22;20083;-71
2023/06/05 02:48:27;;;;;;;4.03;1.90;;;;;;;;;;5201238;22;20026;-70
2023/06/05 02:50:47;;;;;;;2.03;1.70;;;;;;;;;;5201382;22;20074;-70
2023/06/05 02:53:07;;;;;;;1.67;1.67;;;;;;;;;;5201514;22;20026;-70
2023/06/05 02:55:29;;;;;;;1.77;1.40;;;;;;;;;;5201145;22;20031;-70
2023/06/05 02:57:49;;;;;;;1.63;1.63;;;;;;;;;;5201358;22;20034;-70
2023/06/05 03:00:14;;;;;;;1.60;1.60;;;;;;;;;;5200144;22;20023;-70
2023/06/05 03:02:36;;;;;;;1.70;1.60;;;;;;;;;;5200356;22;20026;-70
2023/06/05 03:04:56;;;;;;;1.70;1.70;;;;;;;;;;5200742;22;20054;-70
2023/06/05 03:07:17;;;;;;;2.85;2.15;;;;;;;;;;5201353;22;20046;-69
2023/06/05 03:09:37;;;;;;;2.30;2.20;;;;;;;;;;5201334;22;20023;-70
2023/06/05 03:11:58;;;;;;;2.22;2.05;;;;;;;;;;5201100;22;20030;-70
2023/06/05 03:14:18;;;;;;;1.60;1.58;;;;;;;;;;5201309;22;20026;-70
2023/06/05 03:16:43;;;;;;;1.45;1.35;;;;;;;;;;5201420;22;20035;-69
2023/06/05 03:19:03;;;;;;;1.88;1.40;;;;;;;;;;5201180;22;20070;-70
2023/06/05 03:21:23;;;;;;;1.63;1.50;;;;;;;;;;5201159;22;20218;-69
2023/06/05 03:23:43;;;;;;;1.30;1.30;;;;;;;;;;5201296;22;20022;-69
2023/06/05 03:26:04;;;;;;;1.27;1.27;;;;;;;;;;5201246;22;20031;-69
2023/06/05 03:28:24;;;;;;;1.67;1.38;;;;;;;;;;5200951;22;20058;-69
2023/06/05 03:30:45;;;;;;;1.48;1.48;;;;;;;;;;5201234;22;20053;-69
2023/06/05 03:33:06;;;;;;;1.27;1.27;;;;;;;;;;5201074;22;20049;-68
2023/06/05 03:35:27;;;;;;;1.67;1.50;;;;;;;;;;5201270;22;20029;-69
2023/06/05 03:37:47;;;;;;;1.85;1.50;;;;;;;;;;5201140;22;20369;-69
2023/06/05 03:40:08;;;;;;;1.20;1.20;;;;;;;;;;5201156;22;20355;-69
2023/06/05 03:42:29;;;;;;;1.50;1.50;;;;;;;;;;5200978;22;20043;-69
2023/06/05 03:44:50;;;;;;;1.30;1.30;;;;;;;;;;5201101;22;20034;-69
2023/06/05 03:47:10;;;;;;;1.38;1.38;;;;;;;;;;5201168;22;20051;-69
2023/06/05 03:49:30;;;;;;;1.27;1.27;;;;;;;;;;5201027;22;20034;-69
2023/06/05 03:51:51;;;;;;;1.50;1.50;;;;;;;;;;5200988;22;20034;-68
2023/06/05 03:54:12;;;;;;;1.50;1.40;;;;;;;;;;5201149;22;20027;-69
2023/06/05 03:56:39;;;;;;;2.38;1.42;;;;;;;;;;5201551;22;20246;-69
2023/06/05 03:59:08;;;;;;;1.80;1.70;;;;;;;;;;5201914;22;20066;-68
2023/06/05 04:01:28;;;;;;;2.28;2.28;;;;;;;;;;5202018;22;20034;-69
2023/06/05 04:03:48;;;;;;;1.60;1.50;;;;;;;;;;5202114;22;20026;-69
2023/06/05 04:06:09;;;;;;;1.70;1.70;;;;;;;;;;5201955;22;20027;-68
2023/06/05 04:08:29;;;;;;;2.45;2.20;;;;;;;;;;5201981;22;20038;-69
2023/06/05 04:10:50;;;;;;;2.67;2.63;;;;;;;;;;5202089;22;20251;-68
2023/06/05 04:13:11;;;;;;;2.28;2.13;;;;;;;;;;5187666;22;20023;-68
2023/06/05 04:15:31;;;;;;;2.75;2.53;;;;;;;;;;5201709;22;20035;-68
2023/06/05 04:17:52;;;;;;;2.45;2.25;;;;;;;;;;5202041;22;20115;-68
2023/06/05 04:20:14;;;;;;;1.90;1.80;;;;;;;;;;5202022;22;20026;-68
2023/06/05 04:22:35;;;;;;;2.55;2.42;;;;;;;;;;5201771;22;20031;-68
2023/06/05 04:24:55;;;;;;;2.50;2.50;;;;;;;;;;5201939;22;20034;-68
2023/06/05 04:27:16;;;;;;;2.30;2.30;;;;;;;;;;5202068;22;20034;-68
2023/06/05 04:29:37;;;;;;;4.18;2.22;;;;;;;;;;5201831;22;20030;-68
2023/06/05 04:31:57;;;;;;;2.67;2.55;;;;;;;;;;5201998;22;20034;-68
2023/06/05 04:34:18;;;;;;;2.78;2.58;;;;;;;;;;5202027;22;20215;-68
2023/06/05 04:36:38;;;;;;;4.43;2.47;;;;;;;;;;5201855;22;20065;-68
2023/06/05 04:39:00;;;;;;;2.78;2.63;;;;;;;;;;5201833;22;20226;-68
2023/06/05 04:41:24;;;;;;;2.85;2.47;;;;;;;;;;5202049;22;20092;-68
2023/06/05 04:43:44;;;;;;;2.78;2.67;;;;;;;;;;5201857;22;20022;-68
2023/06/05 04:46:04;;;;;;;1.92;1.92;;;;;;;;;;5201663;22;20030;-69
2023/06/05 04:48:25;;;;;;;2.08;2.00;;;;;;;;;;5201904;22;20308;-69
2023/06/05 04:50:45;;;;;;;2.00;2.00;;;;;;;;;;5201899;22;20039;-70
2023/06/05 04:53:05;;;;;;;2.33;2.22;;;;;;;;;;5201700;22;20223;-69
2023/06/05 04:55:25;;;;;;;3.33;3.22;;;;;;;;;;5201776;22;20022;-70
2023/06/05 04:57:46;;;;;;;3.08;2.88;;;;;;;;;;5201977;22;20381;-70
2023/06/05 05:00:07;;;;;;;2.85;2.75;;;;;;;;;;5201732;22;20027;-70
2023/06/05 05:02:28;;;;;;;2.17;2.08;;;;;;;;;;5202236;22;20023;-62
2023/06/05 05:04:48;;;;;;;3.70;2.85;;;;;;;;;;5201889;22;20218;-62
2023/06/05 05:07:14;;;;;;;2.80;2.80;;;;;;;;;;5201679;22;20083;-62
2023/06/05 05:09:34;;;;;;;2.55;2.35;;;;;;;;;;5201669;22;20246;-62
2023/06/05 05:11:55;;;;;;;2.75;2.55;;;;;;;;;;5201780;22;20030;-62
2023/06/05 05:14:15;;;;;;;3.60;3.40;;;;;;;;;;5201729;22;20023;-62
2023/06/05 05:16:35;;;;;;;3.22;3.03;;;;;;;;;;5201563;22;20252;-60
2023/06/05 05:18:57;;;;;;;3.33;3.22;;;;;;;;;;5201696;22;20356;-61
2023/06/05 05:21:18;;;;;;;3.95;3.63;;;;;;;;;;5201800;22;20026;-61
2023/06/05 05:23:38;;;;;;;3.08;2.97;;;;;;;;;;5201668;22;20333;-61
2023/06/05 05:25:58;;;;;;;2.40;2.40;;;;;;;;;;5201711;22;20077;-61
2023/06/05 05:28:18;;;;;;;3.33;3.13;;;;;;;;;;5201793;22;20065;-60
2023/06/05 05:30:38;;;;;;;3.67;3.58;;;;;;;;;;5201640;22;20207;-60
2023/06/05 05:32:58;;;;;;;3.60;3.50;;;;;;;;;;5201635;22;20026;-61
2023/06/05 05:35:18;;;;;;;3.75;3.55;;;;;;;;;;5201707;22;20360;-61
2023/06/05 05:37:38;;;;;;;3.58;3.47;;;;;;;;;;5201613;22;20371;-60
2023/06/05 05:39:58;;;;;;;3.33;3.22;;;;;;;;;;5201484;22;20022;-60
2023/06/05 05:42:18;;;;;;;4.13;3.90;;;;;;;;;;5178888;22;20026;-61
2023/06/05 05:44:42;;;;;;;3.42;3.33;;;;;;;;;;5201622;22;20249;-61
2023/06/05 05:47:02;;;;;;;3.10;2.90;;;;;;;;;;5201493;22;20044;-61
2023/06/05 05:49:22;;;;;;;3.78;3.63;;;;;;;;;;5201628;22;20324;-60
2023/06/05 05:51:42;;;;;;;3.13;3.03;;;;;;;;;;5210177;22;20022;-60
2023/06/05 05:54:02;;;;;;;3.17;3.08;;;;;;;;;;5201530;22;20106;-60
2023/06/05 05:56:23;;;;;;;3.60;3.50;;;;;;;;;;5201554;22;20353;-61
2023/06/05 05:58:44;;;;;;;3.58;3.42;;;;;;;;;;5201610;22;20086;-60
2023/06/05 06:01:04;;;;;;;3.10;2.90;;;;;;;;;;5201559;22;20027;-60
2023/06/05 06:03:26;;;;;;;3.60;3.50;;;;;;;;;;5201450;22;20023;-61
2023/06/05 06:05:48;;;;;;;2.53;2.53;;;;;;;;;;5201679;22;20058;-61
2023/06/05 06:08:08;;;;;;;3.40;3.30;;;;;;;;;;5201527;22;20027;-60
2023/06/05 06:10:28;;;;;;;4.00;3.90;;;;;;;;;;5201785;22;20067;-60
2023/06/05 06:12:49;;;;;;;3.50;3.15;;;;;;;;;;5201550;22;20041;-60
2023/06/05 06:15:09;;;;;;;3.15;2.95;;;;;;;;;;5201416;22;20023;-60
2023/06/05 06:17:29;;;;;;;3.72;3.50;;;;;;;;;;5201516;22;20025;-60
2023/06/05 06:19:50;;;;;;;3.45;3.22;;;;;;;;;;5200737;22;20107;-60
2023/06/05 06:22:13;;;;;;;3.20;3.10;;;;;;;;;;5201542;22;20290;-61
2023/06/05 06:24:33;;;;;;;4.00;3.70;;;;;;;;;;5201394;22;20079;-60
2023/06/05 06:26:54;;;;;;;3.47;3.38;;;;;;;;;;5201423;22;20050;-60
2023/06/05 06:29:18;;;;;;;4.28;3.88;;;;;;;;;;5201476;22;20331;-60
2023/06/05 06:31:39;;;;;;;3.35;3.15;;;;;;;;;;5201464;22;20050;-61
2023/06/05 06:33:59;;;;;;;3.20;3.08;;;;;;;;;;5201429;22;20057;-61
2023/06/05 06:36:20;;;;;;;3.70;3.50;;;;;;;;;;5201370;22;20085;-61
2023/06/05 06:38:40;;;;;;;4.07;3.97;;;;;;;;;;5201738;22;20095;-61
2023/06/05 06:41:00;;;;;;;3.55;3.45;;;;;;;;;;5201295;22;20022;-60
2023/06/05 06:43:21;;;;;;;4.03;3.75;;;;;;;;;;5201459;22;20033;-60
2023/06/05 06:45:41;;;;;;;3.65;3.45;;;;;;;;;;5201446;22;20064;-61
2023/06/05 06:48:02;;;;;;;3.78;3.63;;;;;;;;;;5201493;22;20022;-60
2023/06/05 06:50:26;;;;;;;3.90;3.80;;;;;;;;;;5209874;22;20025;-60
2023/06/05 06:52:46;;;;;;;3.83;3.72;;;;;;;;;;5201428;22;20022;-61
2023/06/05 06:55:06;;;;;;;3.72;3.53;;;;;;;;;;5201195;22;20025;-60
2023/06/05 06:57:27;;;;;;;3.20;3.10;;;;;;;;;;5201278;22;20023;-60
2023/06/05 06:59:47;;;;;;;4.15;4.05;;;;;;;;;;5201353;22;20026;-60
2023/06/05 07:02:21;;;;;;;3.88;3.78;;;;;;;;;;5201353;22;20022;-60
2023/06/05 07:04:43;;;;;;;3.72;3.60;;;;;;;;;;5201339;22;20034;-60
2023/06/05 07:07:04;;;;;;;4.25;4.15;;;;;;;;;;5201205;22;20050;-60
2023/06/05 07:09:24;;;;;;;4.13;4.03;;;;;;;;;;5201291;22;20111;-60
2023/06/05 07:11:45;;;;;;;4.03;3.75;;;;;;;;;;5201226;22;20022;-60
2023/06/05 07:14:07;;;;;;;4.40;4.25;;;;;;;;;;5201188;22;20071;-60
2023/06/05 07:16:27;;;;;;;3.92;3.83;;;;;;;;;;5201144;22;20023;-61
2023/06/05 07:18:49;;;;;;;2.97;2.97;;;;;;;;;;5201327;22;20062;-60
2023/06/05 07:21:10;;;;;;;4.03;3.92;;;;;;;;;;5201262;22;20214;-61
2023/06/05 07:23:32;;;;;;;4.10;3.88;;;;;;;;;;5201245;22;20046;-61
2023/06/05 07:25:52;;;;;;;3.03;3.03;;;;;;;;;;5201228;22;20022;-60
2023/06/05 07:28:13;;;;;;;4.30;4.00;;;;;;;;;;5201475;22;20356;-61
2023/06/05 07:30:33;;;;;;;3.47;2.75;;;;;;;;;;5200808;22;20026;-61
2023/06/05 07:32:53;;;;;;;3.60;3.00;;;;;;;;;;5201147;22;20222;-61
2023/06/05 07:35:16;;;;;;;3.90;3.70;;;;;;;;;;5201011;22;20368;-61
2023/06/05 07:37:37;;;;;;;3.70;3.50;;;;;;;;;;5201082;22;20074;-61
2023/06/05 07:39:57;;;;;;;3.95;3.65;;;;;;;;;;5200897;22;20364;-61
2023/06/05 07:42:18;;;;;;;3.03;2.95;;;;;;;;;;5201099;22;20022;-61
2023/06/05 07:44:38;;;;;;;3.45;3.15;;;;;;;;;;5200992;22;20050;-61
2023/06/05 07:46:58;;;;;;;3.35;3.15;;;;;;;;;;5201075;22;20023;-61
2023/06/05 07:49:18;;;;;;;4.18;3.80;;;;;;;;;;5200973;22;20337;-61
2023/06/05 07:51:39;;;;;;;3.30;3.20;;;;;;;;;;5200974;22;20074;-61
2023/06/05 07:54:00;;;;;;;2.90;2.80;;;;;;;;;;5201017;22;20026;-61
2023/06/05 07:56:23;;;;;;;4.32;2.60;;;;;;;;;;5200877;22;20062;-61
2023/06/05 07:58:43;;;;;;;3.33;2.40;;;;;;;;;;5200960;22;20054;-61
2023/06/05 08:01:06;;;;;;;3.17;2.95;;;;;;;;;;5200816;22;20085;-61
2023/06/05 08:03:27;;;;;;;2.78;2.67;;;;;;;;;;5200824;22;20038;-61
2023/06/05 08:05:48;;;;;;;2.92;2.65;;;;;;;;;;5200869;22;20338;-61
2023/06/05 08:08:08;;;;;;;4.43;2.58;;;;;;;;;;5200799;22;20065;-60
2023/06/05 08:10:28;;;;;;;5.65;2.35;;;;;;;;;;5200768;22;20031;-61
2023/06/05 08:12:49;;;;;;;6.13;2.95;;;;;;;;;;5200874;22;20026;-61
2023/06/05 08:15:09;;;;;;;5.28;1.98;;;;;;;;;;5200776;22;20023;-61
2023/06/05 08:17:29;;;;;;;1.88;1.80;;;;;;;;;;5200832;22;20079;-61
2023/06/05 08:19:50;;;;;;;2.75;2.30;;;;;;;;;;5200849;22;20022;-61
2023/06/05 08:22:12;;;;;;;2.67;2.58;;;;;;;;;;5200819;22;20287;-61
2023/06/05 08:24:32;;;;;;;1.80;1.73;;;;;;;;;;5200732;22;20246;-61
2023/06/05 08:26:53;;;;;;;1.70;1.70;;;;;;;;;;5200758;22;20021;-61
2023/06/05 08:29:13;;;;;;;3.63;1.75;;;;;;;;;;5200738;22;20057;-61
2023/06/05 08:31:36;;;;;;;1.65;1.65;;;;;;;;;;5200700;22;20022;-61
2023/06/05 08:33:56;;;;;;;1.83;1.83;;;;;;;;;;5200667;22;20026;-61
2023/06/05 08:36:17;;;;;;;1.60;1.50;;;;;;;;;;5200872;22;20203;-61
2023/06/05 08:38:37;;;;;;;1.95;1.85;;;;;;;;;;5200616;22;20075;-62
2023/06/05 08:41:02;;;;;;;1.50;1.50;;;;;;;;;;5200590;22;20081;-61
2023/06/05 08:43:22;;;;;;;1.80;1.70;;;;;;;;;;5201250;22;20352;-61
2023/06/05 08:45:42;;;;;;;3.65;1.98;;;;;;;;;;5201929;22;20023;-61
2023/06/05 08:48:03;;;;;;;2.78;1.55;;;;;;;;;;5201788;22;20090;-61
2023/06/05 08:50:23;;;;;;;2.30;1.20;;;;;;;;;;5201911;22;20107;-61
2023/06/05 08:52:49;;;;;;;1.60;1.50;;;;;;;;;;5201937;22;20041;-61
2023/06/05 08:55:10;;;;;;;5.97;1.42;;;;;;;;;;5201646;22;20022;-61
2023/06/05 08:57:32;;;;;;;1.77;1.45;;;;;;;;;;5201774;22;20026;-61
2023/06/05 08:59:52;;;;;;;1.40;1.30;;;;;;;;;;5201831;22;20072;-61
2023/06/05 09:02:13;;;;;;;2.25;1.40;;;;;;;;;;5201866;22;20092;-61
2023/06/05 09:04:33;;;;;;;2.08;1.88;;;;;;;;;;5179309;22;20038;-61
2023/06/05 09:06:53;;;;;;;3.83;2.15;;;;;;;;;;5201876;22;20124;-61
2023/06/05 09:09:17;;;;;;;2.08;1.48;;;;;;;;;;5201857;22;20057;-61
2023/06/05 09:11:39;;;;;;;1.63;1.52;;;;;;;;;;5201763;22;20121;-60
2023/06/05 09:14:00;;;;;;;1.35;1.35;;;;;;;;;;5202074;22;20085;-61
2023/06/05 09:16:21;;;;;;;1.30;1.30;;;;;;;;;;5201758;22;20023;-61
2023/06/05 09:18:53;;;;;;;1.40;1.30;;;;;;;;;;5201697;22;20073;-61
2023/06/05 09:21:15;;;;;;;3.70;1.20;;;;;;;;;;5201645;22;20022;-61
2023/06/05 09:23:36;;;;;;;3.33;1.10;;;;;;;;;;5201752;22;20022;-61
2023/06/05 09:26:00;;;;;;;1.77;1.40;;;;;;;;;;5201748;22;20042;-60
2023/06/05 09:28:20;;;;;;;2.45;1.52;;;;;;;;;;5201656;22;20332;-61
2023/06/05 09:30:59;;;;;;;2.17;1.83;;;;;;;;;;5201655;22;20023;-61
2023/06/05 09:33:20;;;;;;;1.27;1.27;;;;;;;;;;5201737;22;20034;-61
2023/06/05 09:35:40;;;;;;;1.10;1.10;;;;;;;;;;5201684;22;20022;-61
2023/06/05 09:38:00;;;;;;;1.20;1.20;;;;;;;;;;5201600;22;20026;-61
2023/06/05 09:40:37;;;;;;;1.10;1.10;;;;;;;;;;5201487;22;20022;-60
2023/06/05 09:42:57;;;;;;;1.30;1.10;;;;;;;;;;5201736;22;20027;-60
2023/06/05 09:45:17;;;;;;;2.33;1.27;;;;;;;;;;5201730;22;20078;-61
2023/06/05 09:47:37;;;;;;;1.77;1.35;;;;;;;;;;5201490;22;20021;-61
2023/06/05 09:50:27;;;;;;;1.88;1.00;;;;;;;;;;5201553;22;20246;-60
2023/06/05 09:52:47;;;;;;;1.10;1.10;;;;;;;;;;5201589;22;20027;-61
2023/06/05 09:55:08;;;;;;;2.10;1.00;;;;;;;;;;5201528;22;20337;-61
2023/06/05 09:57:29;;;;;;;1.50;1.00;;;;;;;;;;5201581;22;20042;-61
2023/06/05 09:59:53;;;;;;;1.40;1.20;;;;;;;;;;5201514;22;20062;-62
2023/06/05 10:02:16;;;;;;;3.15;1.10;;;;;;;;;;5201611;22;20065;-61
2023/06/05 10:04:43;;;;;;;1.10;1.00;;;;;;;;;;5201595;22;20022;-61
2023/06/05 10:07:04;;;;;;;1.75;1.50;;;;;;;;;;5201482;22;20042;-61
2023/06/05 10:09:25;;;;;;;1.17;1.17;;;;;;;;;;5201467;22;20062;-60
2023/06/05 10:11:49;;;;;;;1.10;0.90;;;;;;;;;;5201616;22;20072;-59
2023/06/05 10:14:10;;;;;;;0.90;0.90;;;;;;;;;;5202031;22;20026;-58
2023/06/05 10:16:31;;;;;;;1.17;1.17;;;;;;;;;;5201347;22;20026;-59
2023/06/05 10:18:52;;;;;;;1.80;1.20;;;;;;;;;;5201554;22;20023;-59
2023/06/05 10:21:13;;;;;;;0.90;0.90;;;;;;;;;;5201579;22;20034;-59
2023/06/05 10:23:34;;;;;;;1.95;1.00;;;;;;;;;;5201262;22;20129;-58
2023/06/05 10:25:56;;;;;;;1.10;0.90;;;;;;;;;;5201479;22;20058;-59
2023/06/05 10:28:17;;;;;;;1.60;1.10;;;;;;;;;;5201678;22;20027;-59
2023/06/05 10:30:52;;;;;;;1.05;1.05;;;;;;;;;;5201391;22;20029;-58
2023/06/05 10:33:21;;;;;;;1.00;1.00;;;;;;;;;;5201355;22;20097;-59
2023/06/05 10:35:48;;;;;;;4.32;1.20;;;;;;;;;;5201247;22;20027;-58
2023/06/05 10:38:22;;;;;;;1.25;1.25;;;;;;;;;;5201577;22;20392;-58
2023/06/05 10:40:43;;;;;;;0.85;0.85;;;;;;;;;;5201467;22;20052;-58
2023/06/05 10:43:22;;;;;;;0.98;0.90;;;;;;;;;;5201337;22;20022;-58
2023/06/05 10:45:42;;;;;;;1.25;0.90;;;;;;;;;;5201269;22;20108;-58
2023/06/05 10:48:05;;;;;;;2.35;1.33;;;;;;;;;;5201314;22;20298;-58
2023/06/05 10:50:27;;;;;;;2.80;0.90;;;;;;;;;;5201531;22;20022;-58
2023/06/05 10:52:50;;;;;;;1.05;1.05;;;;;;;;;;5201641;22;20061;-58
2023/06/05 10:55:12;;;;;;;0.90;0.90;;;;;;;;;;5201018;22;20073;-58
2023/06/05 10:57:51;;;;;;;1.42;0.90;;;;;;;;;;5199673;22;20027;-58
2023/06/05 11:00:12;;;;;;;1.63;1.23;;;;;;;;;;5200812;22;20027;-59
2023/06/05 11:02:32;;;;;;;1.00;1.00;;;;;;;;;;5200646;22;20026;-59
2023/06/05 11:04:52;;;;;;;1.40;1.30;;;;;;;;;;5177904;22;20334;-59
2023/06/05 11:07:16;;;;;;;1.00;1.00;;;;;;;;;;5200724;22;20026;-58
2023/06/05 11:09:36;;;;;;;1.20;1.17;;;;;;;;;;5200690;22;20022;-59
2023/06/05 11:12:01;;;;;;;1.00;1.00;;;;;;;;;;5200492;22;20418;-59
2023/06/05 11:14:21;;;;;;;1.50;0.90;;;;;;;;;;5200875;22;20093;-58
2023/06/05 11:16:41;;;;;;;1.10;1.10;;;;;;;;;;5200684;22;20057;-59
2023/06/05 11:19:20;;;;;;;2.15;1.00;;;;;;;;;;5200670;22;20050;-59
2023/06/05 11:21:59;;;;;;;1.45;1.10;;;;;;;;;;5200582;22;20348;-58
2023/06/05 11:24:20;;;;;;;1.60;0.90;;;;;;;;;;5200866;22;20030;-58
2023/06/05 11:26:42;;;;;;;1.95;0.90;;;;;;;;;;5200750;22;20377;-58
2023/06/05 11:29:02;;;;;;;1.33;1.33;;;;;;;;;;5200638;22;20042;-58
2023/06/05 11:31:31;;;;;;;0.90;0.90;;;;;;;;;;5200570;22;20270;-58
2023/06/05 11:33:51;;;;;;;1.92;0.90;;;;;;;;;;5200668;22;20022;-59
2023/06/05 11:36:12;;;;;;;1.48;1.00;;;;;;;;;;5200555;22;20124;-59
2023/06/05 11:38:32;;;;;;;2.00;0.93;;;;;;;;;;5200544;22;20211;-58
2023/06/05 11:40:52;;;;;;;0.88;0.88;;;;;;;;;;5200431;22;20045;-59
2023/06/05 11:43:13;;;;;;;1.17;1.17;;;;;;;;;;5200830;22;20042;-56
2023/06/05 11:45:37;;;;;;;6.85;1.05;;;;;;;;;;5200446;22;20026;-56
2023/06/05 11:48:10;;;;;;;0.80;0.80;;;;;;;;;;5200369;22;20270;-56
2023/06/05 11:50:30;;;;;;;0.90;0.90;;;;;;;;;;5200500;22;20026;-56
2023/06/05 11:52:51;;;;;;;0.80;0.80;;;;;;;;;;5200616;22;20022;-56
2023/06/05 11:55:16;;;;;;;1.27;0.80;;;;;;;;;;5200382;22;20207;-56
2023/06/05 11:57:41;;;;;;;0.98;0.90;;;;;;;;;;5200346;22;20026;-56
2023/06/05 12:00:14;;;;;;;1.00;1.00;;;;;;;;;;5200379;22;20084;-56
2023/06/05 12:02:34;;;;;;;1.08;1.02;;;;;;;;;;5200487;22;20341;-56
2023/06/05 12:04:55;;;;;;;0.90;0.90;;;;;;;;;;5200297;22;20234;-56
2023/06/05 12:07:27;;;;;;;1.30;1.30;;;;;;;;;;5200124;22;20027;-57
2023/06/05 12:09:53;;;;;;;1.10;1.00;;;;;;;;;;5200232;22;20075;-56
2023/06/05 12:12:13;;;;;;;2.08;1.08;;;;;;;;;;5200401;22;20022;-59
2023/06/05 12:14:34;;;;;;;1.15;1.08;;;;;;;;;;5200226;22;20065;-58
2023/06/05 12:16:54;;;;;;;0.90;0.90;;;;;;;;;;5200194;22;20026;-59
2023/06/05 12:19:18;;;;;;;1.00;1.00;;;;;;;;;;5201353;22;20022;-58
2023/06/05 12:21:40;;;;;;;1.00;1.00;;;;;;;;;;5201339;22;20027;-59
2023/06/05 12:24:07;;;;;;;1.20;1.20;;;;;;;;;;5201201;22;20038;-59
2023/06/05 12:26:29;;;;;;;1.15;0.88;;;;;;;;;;5201445;22;20023;-59
2023/06/05 12:28:49;;;;;;;0.90;0.90;;;;;;;;;;5201457;22;20026;-59
2023/06/05 12:31:10;;;;;;;0.80;0.80;;;;;;;;;;5201180;22;20058;-59
2023/06/05 12:33:30;;;;;;;0.90;0.90;;;;;;;;;;5201157;22;20070;-59
2023/06/05 12:36:05;;;;;;;1.90;1.25;;;;;;;;;;5201307;22;20211;-59
2023/06/05 12:38:25;;;;;;;0.80;0.80;;;;;;;;;;5201450;22;20035;-59
2023/06/05 12:40:45;;;;;;;0.80;0.80;;;;;;;;;;5200997;22;20022;-59
2023/06/05 12:43:24;;;;;;;0.77;0.73;;;;;;;;;;5201181;22;20050;-59
2023/06/05 12:45:45;;;;;;;1.88;0.80;;;;;;;;;;5201427;22;20022;-59
2023/06/05 12:48:06;;;;;;;0.90;0.90;;;;;;;;;;5201587;22;20083;-59
2023/06/05 12:50:26;;;;;;;0.80;0.80;;;;;;;;;;5201195;22;20039;-59
2023/06/05 12:52:47;;;;;;;1.88;0.90;;;;;;;;;;5201209;22;20042;-58
2023/06/05 12:55:08;;;;;;;1.40;0.90;;;;;;;;;;5201229;22;20096;-61
2023/06/05 12:57:28;;;;;;;2.25;1.10;;;;;;;;;;5201190;22;20079;-61
2023/06/05 12:59:48;;;;;;;1.05;0.90;;;;;;;;;;5201188;22;20069;-61
2023/06/05 13:02:08;;;;;;;5.07;1.30;;;;;;;;;;5201227;22;20062;-61
2023/06/05 13:04:31;;;;;;;1.25;0.80;;;;;;;;;;5201099;22;20041;-61
2023/06/05 13:06:54;;;;;;;0.88;0.88;;;;;;;;;;5201104;22;20022;-61
2023/06/05 13:09:15;;;;;;;0.90;0.90;;;;;;;;;;5201666;22;20215;-61
2023/06/05 13:11:35;;;;;;;1.00;0.90;;;;;;;;;;5201275;22;20059;-61
2023/06/05 13:13:55;;;;;;;0.80;0.80;;;;;;;;;;5201051;22;20065;-61
2023/06/05 13:16:15;;;;;;;1.58;0.90;;;;;;;;;;5201086;22;20058;-61
2023/06/05 13:18:36;;;;;;;1.08;1.08;;;;;;;;;;5201223;22;20056;-61
2023/06/05 13:20:56;;;;;;;0.90;0.90;;;;;;;;;;5201010;22;20030;-61
2023/06/05 13:23:16;;;;;;;1.70;1.00;;;;;;;;;;5201118;22;20333;-61
2023/06/05 13:25:36;;;;;;;3.70;1.00;;;;;;;;;;5201180;22;20315;-62
2023/06/05 13:27:56;;;;;;;3.45;1.67;;;;;;;;;;5201382;22;20073;-61
2023/06/05 13:30:16;;;;;;;1.20;1.10;;;;;;;;;;5200809;22;20022;-61
2023/06/05 13:32:38;;;;;;;1.00;1.00;;;;;;;;;;5201224;22;20049;-61
2023/06/05 13:34:58;;;;;;;1.20;1.20;;;;;;;;;;5200935;22;20023;-61
2023/06/05 13:37:19;;;;;;;3.55;1.20;;;;;;;;;;5200881;22;20042;-61
2023/06/05 13:39:42;;;;;;;2.25;1.23;;;;;;;;;;5201049;22;20061;-61
2023/06/05 13:42:03;;;;;;;4.95;1.10;;;;;;;;;;5201131;22;20022;-60
2023/06/05 13:44:24;;;;;;;0.90;0.90;;;;;;;;;;5200895;22;20031;-61
2023/06/05 13:46:44;;;;;;;1.00;1.00;;;;;;;;;;5200993;22;20031;-61
2023/06/05 13:49:04;;;;;;;0.80;0.80;;;;;;;;;;5201074;22;20207;-61
2023/06/05 13:51:25;;;;;;;0.95;0.95;;;;;;;;;;5200873;22;20026;-60
2023/06/05 13:53:45;;;;;;;1.00;1.00;;;;;;;;;;5200961;22;20214;-61
2023/06/05 13:56:06;;;;;;;1.27;1.27;;;;;;;;;;5178388;22;20352;-61
2023/06/05 13:58:26;;;;;;;0.90;0.90;;;;;;;;;;5201029;22;20390;-61
2023/06/05 14:00:48;;;;;;;1.48;1.00;;;;;;;;;;5200802;22;20030;-61
2023/06/05 14:03:08;;;;;;;0.90;0.90;;;;;;;;;;5201026;22;20085;-61
2023/06/05 14:05:29;;;;;;;2.78;1.00;;;;;;;;;;5200950;22;20065;-61
2023/06/05 14:07:50;;;;;;;1.73;1.42;;;;;;;;;;5200846;22;20042;-61
2023/06/05 14:10:10;;;;;;;12.20;8.23;;;;;;;;;;5201055;22;20073;-62